Time,TemperatureF,DewpointF,PressureIn,WindDirection,WindDirectionDegrees,WindSpeedMPH,WindSpeedGustMPH,Humidity,HourlyPrecipIn,Conditions,Clouds,dailyrainin,SoftwareType,DateUTC
2013-04-19 00:00:00,29.5,29.0,29.38,NNE,22,1.5,6.7,98,0.00,,SKC,0.00,VWS V14.01,2013-04-19 05:00:00,
2013-04-19 00:20:00,29.5,29.0,29.35,NNE,22,1.3,7.4,98,0.00,,SKC,0.00,VWS V14.01,2013-04-19 05:20:00,
2013-04-19 00:40:00,29.3,28.8,29.35,NNE,22,2.6,7.0,98,0.00,,SKC,0.00,VWS V14.01,2013-04-19 05:40:00,
2013-04-19 01:00:00,29.3,28.8,29.35,NNE,22,1.3,6.3,98,0.00,,SKC,0.00,VWS V14.01,2013-04-19 06:00:00,
2013-04-19 01:20:00,29.1,28.6,29.35,NNE,22,2.8,8.6,98,0.00,,SKC,0.00,VWS V14.01,2013-04-19 06:20:00,
2013-04-19 01:40:00,28.9,28.5,29.35,NNE,22,1.8,6.7,98,0.00,,SKC,0.00,VWS V14.01,2013-04-19 06:40:00,
2013-04-19 02:00:00,28.8,28.3,29.32,NNE,22,3.6,6.7,98,0.00,,SKC,0.00,VWS V14.01,2013-04-19 07:00:00,
2013-04-19 02:20:00,28.9,28.5,29.35,NNE,22,1.8,5.5,98,0.00,,SKC,0.00,VWS V14.01,2013-04-19 07:20:00,
2013-04-19 02:40:00,28.8,28.3,29.35,NNE,22,4.1,6.3,98,0.00,,SKC,0.00,VWS V14.01,2013-04-19 07:40:00,
2013-04-19 03:00:00,28.8,28.3,29.35,NNE,22,3.3,6.7,98,0.00,,SKC,0.00,VWS V14.01,2013-04-19 08:00:00,
2013-04-19 03:20:00,28.6,28.1,29.32,NNE,22,3.1,7.0,98,0.00,,SKC,0.00,VWS V14.01,2013-04-19 08:20:00,
2013-04-19 03:40:00,28.6,28.1,29.35,NNE,22,2.6,6.3,98,0.00,,SKC,0.00,VWS V14.01,2013-04-19 08:40:00,
2013-04-19 04:00:00,28.4,27.9,29.32,NNE,22,1.5,5.9,98,0.00,,SKC,0.00,VWS V14.01,2013-04-19 09:00:00,
2013-04-19 04:20:00,28.0,27.5,29.35,NNE,22,1.8,8.2,98,0.00,,SKC,0.00,VWS V14.01,2013-04-19 09:20:00,
2013-04-19 04:40:00,27.7,27.2,29.35,NNE,22,3.9,6.7,98,0.00,,SKC,0.00,VWS V14.01,2013-04-19 09:40:00,
2013-04-19 05:00:00,27.3,26.8,29.35,NNE,22,1.8,6.7,98,0.00,,SKC,0.00,VWS V14.01,2013-04-19 10:00:00,
2013-04-19 05:20:00,27.0,26.5,29.35,NNE,22,3.1,7.0,98,0.00,,SKC,0.00,VWS V14.01,2013-04-19 10:20:00,
2013-04-19 05:40:00,26.6,26.1,29.35,NNE,22,3.3,10.2,98,0.00,,SKC,0.00,VWS V14.01,2013-04-19 10:40:00,
2013-04-19 06:00:00,26.2,25.8,29.35,NNE,22,1.5,8.2,98,0.00,,SKC,0.00,VWS V14.01,2013-04-19 11:00:00,
2013-04-19 06:20:00,26.2,25.8,29.35,NNE,22,1.8,4.3,98,0.00,,SKC,0.00,VWS V14.01,2013-04-19 11:20:00,
2013-04-19 06:40:00,26.2,25.8,29.38,NNE,22,0.0,6.3,98,0.00,,SKC,0.00,VWS V14.01,2013-04-19 11:40:00,
2013-04-19 07:00:00,26.6,26.1,29.38,NNE,22,1.0,6.3,98,0.00,,SKC,0.00,VWS V14.01,2013-04-19 12:00:00,
2013-04-19 07:20:00,26.8,25.0,29.38,NNE,22,2.8,7.0,93,0.00,,SKC,0.00,VWS V14.01,2013-04-19 12:20:00,
2013-04-19 07:40:00,26.2,25.0,29.41,NNE,22,3.6,7.0,95,0.00,,SKC,0.00,VWS V14.01,2013-04-19 12:40:00,
2013-04-19 08:00:00,26.2,24.0,29.41,NNE,22,2.6,6.3,91,0.00,,SKC,0.00,VWS V14.01,2013-04-19 13:00:00,
2013-04-19 08:20:00,27.0,24.7,29.41,NNE,22,3.1,6.3,91,0.00,,SKC,0.00,VWS V14.01,2013-04-19 13:20:00,
2013-04-19 08:40:00,27.5,24.7,29.41,NNE,22,1.8,6.3,89,0.00,,SKC,0.00,VWS V14.01,2013-04-19 13:40:00,
2013-04-19 09:00:00,27.5,23.9,29.41,NNE,22,2.6,7.4,86,0.00,,SKC,0.00,VWS V14.01,2013-04-19 14:00:00,
2013-04-19 09:20:00,26.6,26.1,29.41,NNE,22,1.3,8.2,98,0.00,,SKC,0.00,VWS V14.01,2013-04-19 14:20:00,
2013-04-19 09:40:00,27.3,26.8,29.44,NNE,22,3.6,6.7,98,0.00,,SKC,0.00,VWS V14.01,2013-04-19 14:40:00,
2013-04-19 10:00:00,28.6,28.1,29.44,NNE,22,3.6,7.4,98,0.00,,SKC,0.00,VWS V14.01,2013-04-19 15:00:00,
2013-04-19 10:20:00,28.2,27.7,29.44,NNE,22,3.3,7.0,98,0.00,,SKC,0.00,VWS V14.01,2013-04-19 15:20:00,
2013-04-19 10:40:00,29.8,28.8,29.47,NNE,22,1.0,8.2,96,0.00,,SKC,0.00,VWS V14.01,2013-04-19 15:40:00,
2013-04-19 11:00:00,30.2,27.1,29.47,NNE,22,2.8,7.8,88,0.00,,SKC,0.00,VWS V14.01,2013-04-19 16:00:00,
2013-04-19 11:20:00,31.6,27.9,29.47,NNE,22,1.3,8.6,86,0.00,,SKC,0.00,VWS V14.01,2013-04-19 16:20:00,
2013-04-19 11:40:00,30.7,25.0,29.47,NNE,22,3.6,10.2,79,0.00,,SKC,0.00,VWS V14.01,2013-04-19 16:40:00,
2013-04-19 12:00:00,29.7,24.9,29.50,NNE,22,6.2,9.4,82,0.00,,SKC,0.00,VWS V14.01,2013-04-19 17:00:00,
2013-04-19 12:20:00,33.4,27.9,29.50,NNE,22,3.6,9.8,80,0.00,,SKC,0.00,VWS V14.01,2013-04-19 17:20:00,
2013-04-19 12:40:00,32.7,26.6,29.50,NNE,22,3.6,9.8,78,0.00,,SKC,0.00,VWS V14.01,2013-04-19 17:40:00,
2013-04-19 13:00:00,32.7,26.6,29.53,NNE,22,3.9,11.4,78,0.00,,SKC,0.00,VWS V14.01,2013-04-19 18:00:00,
2013-04-19 13:20:00,31.3,25.2,29.53,NNE,22,1.5,12.1,78,0.00,,SKC,0.00,VWS V14.01,2013-04-19 18:20:00,
2013-04-19 13:40:00,33.8,28.0,29.53,NNE,22,3.1,7.4,79,0.00,,SKC,0.00,VWS V14.01,2013-04-19 18:40:00,
2013-04-19 14:00:00,30.0,23.7,29.53,NNE,22,3.3,11.7,77,0.00,,SKC,0.00,VWS V14.01,2013-04-19 19:00:00,
2013-04-19 14:20:00,32.7,26.3,29.56,NNE,22,3.1,10.6,77,0.00,,SKC,0.00,VWS V14.01,2013-04-19 19:20:00,
2013-04-19 14:40:00,30.0,24.6,29.56,NNE,22,4.9,15.3,80,0.00,,SKC,0.00,VWS V14.01,2013-04-19 19:40:00,
2013-04-19 15:00:00,32.4,26.3,29.59,NNE,22,2.3,16.8,78,0.00,,SKC,0.00,VWS V14.01,2013-04-19 20:00:00,
2013-04-19 15:20:00,30.4,25.0,29.62,NNE,22,3.6,11.4,80,0.00,,SKC,0.00,VWS V14.01,2013-04-19 20:20:00,
2013-04-19 15:40:00,32.0,26.2,29.62,NNE,22,5.7,11.4,79,0.00,,SKC,0.00,VWS V14.01,2013-04-19 20:40:00,
2013-04-19 16:00:00,31.5,26.0,29.62,NNE,22,2.6,12.5,80,0.00,,SKC,0.00,VWS V14.01,2013-04-19 21:00:00,
2013-04-19 16:20:00,31.1,25.0,29.65,NNE,22,4.6,13.3,78,0.00,,SKC,0.00,VWS V14.01,2013-04-19 21:20:00,
2013-04-19 16:40:00,30.7,25.3,29.65,NNE,22,2.3,10.6,80,0.00,,SKC,0.00,VWS V14.01,2013-04-19 21:40:00,
2013-04-19 17:00:00,28.6,24.1,29.68,NNE,22,3.1,11.0,83,0.00,,SKC,0.00,VWS V14.01,2013-04-19 22:00:00,
2013-04-19 17:20:00,30.2,25.7,29.71,NNE,22,4.4,14.1,83,0.00,,SKC,0.00,VWS V14.01,2013-04-19 22:20:00,
2013-04-19 17:40:00,29.7,25.4,29.71,NNE,22,2.6,9.8,84,0.00,,SKC,0.00,VWS V14.01,2013-04-19 22:40:00,
2013-04-19 18:00:00,28.2,24.3,29.71,NNE,22,1.8,7.4,85,0.00,,SKC,0.00,VWS V14.01,2013-04-19 23:00:00,
2013-04-19 18:20:00,28.4,25.6,29.74,NNE,22,3.3,9.8,89,0.00,,SKC,0.00,VWS V14.01,2013-04-19 23:20:00,
2013-04-19 18:40:00,27.5,24.7,29.74,NNE,22,3.1,8.6,89,0.00,,SKC,0.00,VWS V14.01,2013-04-19 23:40:00,
2013-04-19 19:00:00,27.0,24.4,29.74,NNE,22,3.3,8.6,90,0.00,,SKC,0.00,VWS V14.01,2013-04-20 00:00:00,
2013-04-19 19:20:00,26.8,24.0,29.76,NNE,22,4.4,9.4,89,0.00,,SKC,0.00,VWS V14.01,2013-04-20 00:20:00,
2013-04-19 19:40:00,26.8,24.0,29.76,NNE,22,2.3,7.4,89,0.00,,SKC,0.00,VWS V14.01,2013-04-20 00:40:00,
2013-04-19 20:00:00,26.1,23.0,29.76,NNE,22,2.8,12.1,88,0.00,,SKC,0.00,VWS V14.01,2013-04-20 01:00:00,
2013-04-19 20:20:00,25.7,22.6,29.79,NNE,22,1.5,10.6,88,0.00,,SKC,0.00,VWS V14.01,2013-04-20 01:20:00,
2013-04-19 20:40:00,25.3,22.6,29.82,NNE,22,1.8,6.3,89,0.00,,SKC,0.00,VWS V14.01,2013-04-20 01:40:00,
2013-04-19 21:00:00,25.2,22.4,29.79,NNE,22,0.0,4.7,89,0.00,,SKC,0.00,VWS V14.01,2013-04-20 02:00:00,
2013-04-19 21:20:00,25.2,22.6,29.82,NNE,22,0.0,2.0,90,0.00,,SKC,0.00,VWS V14.01,2013-04-20 02:20:00,
2013-04-19 21:40:00,24.4,21.7,29.82,NNE,22,0.0,4.3,89,0.00,,SKC,0.00,VWS V14.01,2013-04-20 02:40:00,
2013-04-19 22:00:00,23.4,20.3,29.82,NNE,22,0.0,2.0,88,0.00,,SKC,0.00,VWS V14.01,2013-04-20 03:00:00,
2013-04-19 22:20:00,22.6,19.4,29.85,NNE,22,0.0,0.0,87,0.00,,SKC,0.00,VWS V14.01,2013-04-20 03:20:00,
2013-04-19 22:40:00,21.4,18.1,29.85,NNE,22,0.0,0.0,87,0.00,,SKC,0.00,VWS V14.01,2013-04-20 03:40:00,
2013-04-19 23:00:00,20.1,16.9,29.85,NNE,22,0.0,0.0,87,0.00,,SKC,0.00,VWS V14.01,2013-04-20 04:00:00,
2013-04-19 23:20:00,18.9,15.6,29.85,NNE,22,0.0,0.0,87,0.00,,SKC,0.00,VWS V14.01,2013-04-20 04:20:00,
2013-04-19 23:40:00,17.8,14.6,29.85,NNE,22,0.0,0.0,87,0.00,,SKC,0.00,VWS V14.01,2013-04-20 04:40:00,